Time;durP1;ratioP1;P1;durP2;ratioP2;P2;SDS_P1;SDS_P2;PMS_P1;PMS_P2;Temp;Humidity;BMP_temperature;BMP_pressure;BME280_temperature;BME280_humidity;BME280_pressure;Samples;Min_cycle;Max_cycle;Signal;HPM_P1;HPM_P2
2024/01/28 00:00:13;;;;;;;16.42;8.45;;;1.60;99.90;;;;;;5008670;28;20120;-43
2024/01/28 00:02:38;;;;;;;13.50;7.95;;;1.40;99.90;;;;;;5008576;28;20526;-44
2024/01/28 00:05:04;;;;;;;23.70;9.35;;;1.40;99.90;;;;;;5008437;28;20034;-41
2024/01/28 00:07:29;;;;;;;24.17;8.07;;;1.40;99.90;;;;;;5008732;28;20041;-43
2024/01/28 00:09:55;;;;;;;25.02;9.65;;;1.30;99.90;;;;;;5008498;28;20486;-42
2024/01/28 00:12:20;;;;;;;22.33;8.80;;;1.30;99.90;;;;;;5008328;28;20049;-42
2024/01/28 00:14:46;;;;;;;21.02;9.32;;;1.40;99.90;;;;;;5008510;28;20510;-45
2024/01/28 00:17:11;;;;;;;24.83;8.95;;;1.40;99.90;;;;;;5010709;28;20069;-45
2024/01/28 00:19:37;;;;;;;21.67;10.93;;;1.30;99.90;;;;;;5011388;28;20486;-44
2024/01/28 00:22:03;;;;;;;27.17;10.93;;;1.40;99.90;;;;;;5010614;28;20044;-40
2024/01/28 00:24:29;;;;;;;29.55;12.38;;;1.40;99.90;;;;;;5011358;28;20050;-43
2024/01/28 00:26:55;;;;;;;19.17;10.35;;;1.40;99.90;;;;;;4993735;28;20065;-45
2024/01/28 00:29:28;;;;;;;18.42;10.18;;;1.30;99.90;;;;;;5011518;28;20052;-44
2024/01/28 00:31:57;;;;;;;25.70;11.75;;;1.30;99.90;;;;;;5011316;28;20088;-38
2024/01/28 00:34:24;;;;;;;30.23;11.68;;;1.20;99.90;;;;;;5010827;28;20084;-42
2024/01/28 00:36:49;;;;;;;24.48;10.93;;;1.10;99.90;;;;;;5010702;28;20097;-42
2024/01/28 00:39:15;;;;;;;25.20;9.00;;;1.10;99.90;;;;;;5011623;28;20414;-43
2024/01/28 00:41:40;;;;;;;28.73;9.65;;;1.10;99.90;;;;;;5011191;28;20030;-42
2024/01/28 00:44:06;;;;;;;17.45;8.75;;;1.10;99.90;;;;;;5009467;28;20045;-42
2024/01/28 00:46:34;;;;;;;32.08;11.27;;;1.20;99.90;;;;;;5011444;28;20384;-41
2024/01/28 00:49:01;;;;;;;31.10;11.27;;;1.20;99.90;;;;;;5011780;28;20148;-46
2024/01/28 00:51:27;;;;;;;25.98;12.50;;;1.10;99.90;;;;;;5011284;28;20026;-44
2024/01/28 00:53:53;;;;;;;26.90;10.85;;;1.10;99.90;;;;;;5010856;28;20029;-45
2024/01/28 00:56:19;;;;;;;24.48;13.23;;;1.10;99.90;;;;;;5011429;28;20025;-46
2024/01/28 00:58:45;;;;;;;22.67;11.75;;;1.10;99.90;;;;;;5011007;28;20026;-46
2024/01/28 01:01:12;;;;;;;22.90;11.98;;;1.00;99.90;;;;;;5010957;28;20490;-44
2024/01/28 01:03:37;;;;;;;28.55;14.90;;;1.00;99.90;;;;;;5010502;28;20033;-41
2024/01/28 01:06:04;;;;;;;29.25;14.13;;;1.10;99.90;;;;;;5011371;28;20022;-43
2024/01/28 01:08:32;;;;;;;30.50;11.52;;;1.00;99.90;;;;;;5010937;28;20056;-43
2024/01/28 01:10:58;;;;;;;17.25;8.93;;;1.00;99.90;;;;;;5012422;28;20022;-40
2024/01/28 01:13:23;;;;;;;22.25;9.40;;;1.00;99.90;;;;;;5012160;28;20521;-46
2024/01/28 01:15:49;;;;;;;21.08;9.88;;;1.00;99.90;;;;;;5013384;28;20053;-42
2024/01/28 01:18:15;;;;;;;27.08;9.32;;;1.00;99.90;;;;;;5013121;28;20038;-40
2024/01/28 01:20:40;;;;;;;14.30;8.32;;;1.00;99.90;;;;;;5013902;28;20022;-43
2024/01/28 01:23:06;;;;;;;27.05;9.43;;;1.00;99.90;;;;;;5011895;28;20544;-41
2024/01/28 01:25:31;;;;;;;26.70;10.23;;;1.00;99.90;;;;;;5013102;28;20052;-43
2024/01/28 01:27:57;;;;;;;22.75;9.68;;;1.00;99.90;;;;;;5014019;28;20022;-45
2024/01/28 01:30:23;;;;;;;22.35;8.73;;;1.00;99.90;;;;;;5013654;28;20093;-42
2024/01/28 01:32:49;;;;;;;24.02;8.88;;;1.00;99.90;;;;;;5013361;28;20014;-42
2024/01/28 01:35:14;;;;;;;21.42;7.82;;;1.00;99.90;;;;;;5013631;28;20550;-44
2024/01/28 01:37:41;;;;;;;17.83;9.10;;;0.90;99.90;;;;;;5013858;28;20018;-44
2024/01/28 01:40:07;;;;;;;22.90;9.23;;;0.90;99.90;;;;;;5013537;28;20083;-42
2024/01/28 01:42:33;;;;;;;18.77;9.20;;;0.90;99.90;;;;;;5013494;28;20050;-44
2024/01/28 01:44:58;;;;;;;27.35;9.60;;;0.90;99.90;;;;;;5013622;28;20419;-43
2024/01/28 01:47:25;;;;;;;20.70;10.50;;;0.90;99.90;;;;;;5013393;28;20075;-41
2024/01/28 01:49:51;;;;;;;18.20;9.38;;;0.90;99.90;;;;;;5013393;28;20105;-46
2024/01/28 01:52:18;;;;;;;15.77;9.40;;;1.00;99.90;;;;;;5013364;28;20056;-43
2024/01/28 01:54:46;;;;;;;22.90;9.15;;;1.00;99.90;;;;;;5013898;28;20022;-41
2024/01/28 01:57:12;;;;;;;17.48;9.50;;;1.00;99.90;;;;;;5013849;28;20029;-42
2024/01/28 01:59:38;;;;;;;18.17;9.40;;;1.10;99.90;;;;;;5014489;28;20034;-41
2024/01/28 02:02:10;;;;;;;21.40;9.50;;;1.10;99.90;;;;;;5014729;28;20033;-42
2024/01/28 02:04:38;;;;;;;22.52;10.38;;;1.10;99.90;;;;;;5014803;28;20025;-41
2024/01/28 02:07:04;;;;;;;18.83;9.00;;;1.20;99.90;;;;;;5014766;28;20026;-41
2024/01/28 02:09:31;;;;;;;71.15;37.35;;;1.20;99.90;;;;;;5014948;28;20018;-42
2024/01/28 02:11:56;;;;;;;27.13;12.73;;;1.10;99.90;;;;;;5013499;28;20116;-38
2024/01/28 02:14:23;;;;;;;17.55;8.95;;;1.10;99.90;;;;;;5013132;28;20117;-43
2024/01/28 02:16:48;;;;;;;16.55;9.57;;;1.00;99.90;;;;;;5013307;28;20054;-43
2024/01/28 02:19:17;;;;;;;19.60;9.35;;;1.00;99.90;;;;;;5014393;28;20064;-42
2024/01/28 02:21:43;;;;;;;23.38;10.18;;;1.00;99.90;;;;;;5013142;28;20231;-39
2024/01/28 02:24:09;;;;;;;19.50;8.95;;;0.90;99.90;;;;;;5012799;28;20076;-41
2024/01/28 02:26:35;;;;;;;20.80;9.70;;;0.90;99.90;;;;;;5013126;28;20487;-44
2024/01/28 02:29:00;;;;;;;21.45;11.15;;;0.90;99.90;;;;;;5013010;28;20026;-45
2024/01/28 02:31:26;;;;;;;24.17;10.32;;;0.80;99.90;;;;;;5013162;28;20022;-45
2024/01/28 02:33:51;;;;;;;17.08;9.13;;;0.80;99.90;;;;;;5012628;28;20025;-43
2024/01/28 02:36:17;;;;;;;19.15;9.50;;;0.80;99.90;;;;;;5012901;28;20415;-39
2024/01/28 02:38:42;;;;;;;18.33;9.90;;;0.70;99.90;;;;;;5012801;28;20062;-43
2024/01/28 02:41:08;;;;;;;24.52;9.93;;;0.70;99.90;;;;;;5012902;28;20033;-40
2024/01/28 02:43:34;;;;;;;14.05;9.25;;;0.70;99.90;;;;;;5012340;28;20030;-42
2024/01/28 02:46:00;;;;;;;23.65;9.07;;;0.80;99.90;;;;;;5012740;28;20067;-42
2024/01/28 02:48:25;;;;;;;17.85;9.43;;;0.80;99.90;;;;;;5013165;28;20101;-42
2024/01/28 02:50:51;;;;;;;19.33;10.43;;;0.80;99.90;;;;;;5012446;28;20060;-44
2024/01/28 02:53:17;;;;;;;23.25;8.98;;;0.70;99.90;;;;;;5013105;28;20033;-44
2024/01/28 02:55:42;;;;;;;21.00;8.95;;;0.80;99.90;;;;;;5012612;28;20041;-42
2024/01/28 02:58:08;;;;;;;19.27;9.77;;;0.80;99.90;;;;;;5012850;28;20082;-42
2024/01/28 03:00:35;;;;;;;20.42;8.93;;;0.80;99.90;;;;;;5012738;28;20030;-42
2024/01/28 03:03:03;;;;;;;18.42;9.27;;;0.80;99.90;;;;;;5011987;28;20048;-43
2024/01/28 03:05:29;;;;;;;20.20;9.73;;;0.70;99.90;;;;;;5012409;28;20479;-41
2024/01/28 03:07:54;;;;;;;18.42;8.25;;;0.80;99.90;;;;;;5012392;28;20026;-42
2024/01/28 03:10:20;;;;;;;21.98;8.82;;;0.80;99.90;;;;;;5012391;28;20029;-42
2024/01/28 03:12:49;;;;;;;21.85;8.25;;;0.80;99.90;;;;;;5011859;28;20029;-45
2024/01/28 03:15:16;;;;;;;10.90;7.28;;;0.80;99.90;;;;;;5012235;28;20049;-42
2024/01/28 03:17:41;;;;;;;15.90;8.20;;;0.80;99.90;;;;;;5012001;28;20573;-46
2024/01/28 03:20:08;;;;;;;20.08;9.00;;;0.70;99.90;;;;;;5012146;28;20030;-41
2024/01/28 03:22:34;;;;;;;13.25;7.95;;;0.70;99.90;;;;;;5011630;28;20036;-42
2024/01/28 03:24:59;;;;;;;18.20;8.30;;;0.70;99.90;;;;;;5012147;28;20497;-43
2024/01/28 03:27:25;;;;;;;21.35;8.50;;;0.70;99.90;;;;;;5011882;28;20032;-42
2024/01/28 03:29:51;;;;;;;17.98;7.90;;;0.70;99.90;;;;;;5011981;28;20097;-42
2024/01/28 03:32:16;;;;;;;19.13;8.70;;;0.70;99.90;;;;;;5011320;28;20033;-40
2024/01/28 03:34:42;;;;;;;18.67;7.78;;;0.70;99.90;;;;;;5011876;28;20029;-42
2024/01/28 03:37:07;;;;;;;21.17;8.18;;;0.70;99.90;;;;;;5011751;28;20033;-43
2024/01/28 03:39:33;;;;;;;17.77;7.97;;;0.70;99.90;;;;;;5012309;28;20033;-39
2024/01/28 03:41:58;;;;;;;18.05;8.32;;;0.60;99.90;;;;;;5012006;28;20066;-48
2024/01/28 03:44:24;;;;;;;20.95;8.82;;;0.60;99.90;;;;;;5011523;28;20092;-42
2024/01/28 03:46:50;;;;;;;22.25;7.85;;;0.60;99.90;;;;;;5012028;28;20387;-42
2024/01/28 03:49:15;;;;;;;17.23;9.10;;;0.50;99.90;;;;;;5011879;28;20022;-42
2024/01/28 03:51:41;;;;;;;26.90;9.68;;;0.40;99.90;;;;;;5011801;28;20022;-46
2024/01/28 03:54:06;;;;;;;18.23;8.93;;;0.40;99.90;;;;;;5011345;28;20032;-42
2024/01/28 03:56:34;;;;;;;22.70;8.60;;;0.40;99.90;;;;;;5011538;28;20030;-44
2024/01/28 03:59:00;;;;;;;14.35;7.82;;;0.40;99.90;;;;;;5011576;28;20041;-44
2024/01/28 04:01:33;;;;;;;16.02;8.18;;;0.50;99.90;;;;;;5011475;28;20022;-47
2024/01/28 04:03:59;;;;;;;23.17;8.55;;;0.40;99.90;;;;;;5011160;28;20022;-42
2024/01/28 04:06:25;;;;;;;25.33;7.82;;;0.40;99.90;;;;;;5011543;28;20117;-40
2024/01/28 04:08:54;;;;;;;17.80;8.07;;;0.40;99.90;;;;;;5011388;28;20084;-42
2024/01/28 04:11:26;;;;;;;13.63;7.72;;;0.50;99.90;;;;;;5009954;28;20489;-42
2024/01/28 04:13:55;;;;;;;15.48;8.23;;;0.50;99.90;;;;;;5011120;28;20050;-41
2024/01/28 04:16:22;;;;;;;20.92;7.93;;;0.50;99.90;;;;;;5010135;28;20022;-43
2024/01/28 04:18:48;;;;;;;15.05;8.52;;;0.50;99.90;;;;;;5011335;28;20031;-40
2024/01/28 04:21:14;;;;;;;17.67;8.23;;;0.50;99.90;;;;;;5011337;28;20048;-42
2024/01/28 04:23:39;;;;;;;20.25;8.35;;;0.40;99.90;;;;;;5010708;28;20030;-44
2024/01/28 04:26:06;;;;;;;17.55;8.30;;;0.40;99.90;;;;;;5011200;28;20093;-42
2024/01/28 04:28:31;;;;;;;19.77;8.45;;;0.40;99.90;;;;;;5011327;28;20394;-42
2024/01/28 04:30:58;;;;;;;22.83;8.13;;;0.50;99.90;;;;;;5011737;28;20029;-42
2024/01/28 04:33:24;;;;;;;17.60;8.70;;;0.50;99.90;;;;;;5011174;28;20022;-42
2024/01/28 04:35:50;;;;;;;16.73;8.02;;;0.50;99.90;;;;;;5011214;28;20088;-42
2024/01/28 04:38:15;;;;;;;18.27;9.25;;;0.50;99.90;;;;;;5011071;28;20041;-42
2024/01/28 04:40:41;;;;;;;17.95;8.20;;;0.50;99.90;;;;;;5011079;28;20033;-46
2024/01/28 04:43:06;;;;;;;20.00;8.90;;;0.60;99.90;;;;;;5010587;28;20030;-42
2024/01/28 04:45:31;;;;;;;20.90;7.47;;;0.50;99.90;;;;;;5014123;28;20068;-41
2024/01/28 04:47:57;;;;;;;15.40;8.63;;;0.50;99.90;;;;;;5014867;28;20041;-42
2024/01/28 04:50:24;;;;;;;20.92;9.07;;;0.50;99.90;;;;;;5014735;28;20072;-41
2024/01/28 04:52:50;;;;;;;21.02;9.10;;;0.50;99.90;;;;;;5014460;28;20041;-42
2024/01/28 04:55:15;;;;;;;20.05;8.25;;;0.50;99.90;;;;;;5014761;28;20403;-46
2024/01/28 04:57:41;;;;;;;15.10;7.32;;;0.50;99.90;;;;;;5014743;28;20034;-42
2024/01/28 05:00:10;;;;;;;21.25;8.65;;;0.50;99.90;;;;;;5014903;28;20108;-44
2024/01/28 05:02:36;;;;;;;14.02;8.52;;;0.50;99.90;;;;;;5014091;28;20026;-43
2024/01/28 05:05:01;;;;;;;19.63;7.85;;;0.50;99.90;;;;;;5014523;28;20018;-47
2024/01/28 05:07:27;;;;;;;12.77;8.02;;;0.40;99.90;;;;;;5014437;28;20052;-40
2024/01/28 05:09:52;;;;;;;13.95;8.00;;;0.50;99.90;;;;;;5014417;28;20501;-42
2024/01/28 05:12:18;;;;;;;20.10;7.60;;;0.50;99.90;;;;;;5014180;28;20046;-43
2024/01/28 05:14:44;;;;;;;12.75;6.50;;;0.50;99.90;;;;;;5014580;28;20037;-43
2024/01/28 05:17:10;;;;;;;15.63;7.82;;;0.40;99.90;;;;;;5014341;28;20049;-45
2024/01/28 05:19:36;;;;;;;10.50;6.78;;;0.40;99.90;;;;;;5014363;28;20386;-42
2024/01/28 05:22:01;;;;;;;18.33;7.55;;;0.40;99.90;;;;;;5013875;28;20086;-41
2024/01/28 05:24:27;;;;;;;15.68;7.72;;;0.40;99.90;;;;;;5014044;28;20492;-42
2024/01/28 05:26:52;;;;;;;17.83;7.72;;;0.40;99.90;;;;;;5014213;28;20113;-42
2024/01/28 05:29:18;;;;;;;17.38;7.32;;;0.40;99.90;;;;;;5012916;28;20022;-42
2024/01/28 05:31:43;;;;;;;34.30;9.90;;;0.40;99.90;;;;;;5014236;28;20030;-42
2024/01/28 05:34:09;;;;;;;19.27;7.75;;;0.30;99.90;;;;;;5013730;28;20080;-46
2024/01/28 05:36:35;;;;;;;17.77;8.70;;;0.20;99.90;;;;;;5013876;28;20058;-42
2024/01/28 05:39:00;;;;;;;27.92;8.02;;;0.30;99.90;;;;;;5013830;28;20455;-43
2024/01/28 05:41:26;;;;;;;19.50;7.60;;;0.30;99.90;;;;;;5014094;28;20560;-44
2024/01/28 05:43:52;;;;;;;15.70;7.13;;;0.10;99.90;;;;;;5013531;28;20045;-40
2024/01/28 05:46:18;;;;;;;20.35;8.07;;;0.10;99.90;;;;;;5013768;28;20061;-42
2024/01/28 05:48:43;;;;;;;17.65;7.75;;;0.10;99.90;;;;;;5013755;28;20022;-42
2024/01/28 05:51:09;;;;;;;20.15;7.75;;;0.10;99.90;;;;;;5013726;28;20026;-43
2024/01/28 05:53:34;;;;;;;19.35;7.78;;;0.20;99.90;;;;;;5013207;28;20030;-42
2024/01/28 05:56:00;;;;;;;17.30;7.40;;;0.30;99.90;;;;;;5013453;28;20105;-45
2024/01/28 05:58:25;;;;;;;13.93;7.88;;;0.30;99.90;;;;;;5013772;28;20520;-42
2024/01/28 06:00:51;;;;;;;18.67;7.60;;;0.40;99.90;;;;;;5013587;28;20105;-42
2024/01/28 06:03:16;;;;;;;18.85;8.20;;;0.40;99.90;;;;;;5013115;28;20044;-42
2024/01/28 06:05:42;;;;;;;15.43;7.38;;;0.40;99.90;;;;;;5013466;28;20533;-47
2024/01/28 06:08:08;;;;;;;13.52;7.47;;;0.40;99.90;;;;;;5014537;28;20030;-41
2024/01/28 06:10:34;;;;;;;16.67;7.90;;;0.50;99.90;;;;;;5014061;28;20030;-43
2024/01/28 06:12:59;;;;;;;17.52;6.70;;;0.40;99.90;;;;;;5013723;28;20588;-42
2024/01/28 06:15:25;;;;;;;16.10;7.88;;;0.50;99.90;;;;;;5013901;28;20124;-42
2024/01/28 06:17:51;;;;;;;17.48;7.20;;;0.40;99.90;;;;;;5013947;28;20026;-45
2024/01/28 06:20:17;;;;;;;11.98;7.00;;;0.40;99.90;;;;;;5013332;28;20067;-39
2024/01/28 06:22:43;;;;;;;18.88;8.25;;;0.50;99.90;;;;;;5012827;28;20054;-45
2024/01/28 06:25:08;;;;;;;13.10;8.18;;;0.40;99.90;;;;;;5013265;28;20054;-42
2024/01/28 06:27:34;;;;;;;14.48;6.97;;;0.50;99.90;;;;;;5013025;28;20030;-43
2024/01/28 06:29:59;;;;;;;12.43;7.25;;;0.50;99.90;;;;;;5013107;28;20100;-42
2024/01/28 06:32:25;;;;;;;11.93;7.05;;;0.40;99.90;;;;;;5012625;28;20061;-46
2024/01/28 06:34:52;;;;;;;15.35;7.45;;;0.40;99.90;;;;;;5012970;28;20491;-44
2024/01/28 06:37:18;;;;;;;16.15;8.13;;;0.50;99.90;;;;;;5012905;28;20022;-42
2024/01/28 06:39:43;;;;;;;15.98;7.65;;;0.50;99.90;;;;;;5012952;28;20084;-43
2024/01/28 06:42:09;;;;;;;10.18;7.45;;;0.50;99.90;;;;;;5012542;28;20494;-43
2024/01/28 06:44:36;;;;;;;19.90;8.50;;;0.50;99.90;;;;;;5012894;28;20449;-42
2024/01/28 06:47:03;;;;;;;17.90;9.00;;;0.50;99.90;;;;;;5012835;28;20037;-47
2024/01/28 06:49:29;;;;;;;19.00;8.65;;;0.40;99.90;;;;;;5012718;28;20124;-43
2024/01/28 06:51:54;;;;;;;15.25;7.97;;;0.40;99.90;;;;;;5012542;28;20041;-38
2024/01/28 06:54:21;;;;;;;28.13;7.80;;;0.40;99.90;;;;;;5012469;28;20040;-43
2024/01/28 06:56:48;;;;;;;21.25;8.02;;;0.30;99.90;;;;;;5012851;28;20032;-43
2024/01/28 06:59:14;;;;;;;25.77;8.00;;;0.30;99.90;;;;;;5012613;28;20026;-41
2024/01/28 07:01:39;;;;;;;16.50;7.25;;;0.30;99.90;;;;;;5012581;28;20034;-42
2024/01/28 07:04:05;;;;;;;19.08;7.82;;;0.20;99.90;;;;;;5012173;28;20414;-44
2024/01/28 07:06:30;;;;;;;14.55;8.30;;;0.30;99.90;;;;;;5011767;28;20038;-42
2024/01/28 07:08:57;;;;;;;20.73;9.48;;;0.30;99.90;;;;;;5012372;28;20021;-43
2024/01/28 07:11:22;;;;;;;19.55;8.23;;;0.30;99.90;;;;;;5012265;28;20096;-42
2024/01/28 07:13:48;;;;;;;13.55;8.27;;;0.30;99.90;;;;;;5011952;28;20022;-41
2024/01/28 07:16:14;;;;;;;27.65;8.45;;;0.30;99.90;;;;;;5012544;28;20435;-43
2024/01/28 07:18:39;;;;;;;18.08;8.32;;;0.30;99.90;;;;;;5012043;28;20394;-41
2024/01/28 07:21:05;;;;;;;19.63;8.20;;;0.30;99.90;;;;;;5012052;28;20105;-46
2024/01/28 07:23:31;;;;;;;25.58;10.18;;;0.40;99.90;;;;;;4993972;28;20139;-44
2024/01/28 07:25:57;;;;;;;18.23;8.23;;;0.40;99.90;;;;;;5012085;28;20021;-43
2024/01/28 07:28:22;;;;;;;18.83;9.27;;;0.40;99.90;;;;;;5012060;28;20033;-43
2024/01/28 07:30:48;;;;;;;19.05;11.40;;;0.40;99.90;;;;;;5012098;28;20117;-45
2024/01/28 07:33:15;;;;;;;21.95;8.27;;;0.50;99.90;;;;;;5011480;28;20037;-41
2024/01/28 07:35:41;;;;;;;15.02;9.27;;;0.50;99.90;;;;;;5011865;28;20494;-46
2024/01/28 07:38:07;;;;;;;21.23;9.05;;;0.50;99.90;;;;;;5011926;28;20030;-42
2024/01/28 07:40:32;;;;;;;19.35;9.93;;;0.60;99.90;;;;;;5012003;28;20040;-42
2024/01/28 07:42:58;;;;;;;24.73;9.82;;;0.60;99.90;;;;;;5011393;28;20030;-43
2024/01/28 07:45:24;;;;;;;18.35;8.10;;;0.50;99.90;;;;;;5011768;28;20033;-45
2024/01/28 07:47:49;;;;;;;24.98;7.90;;;0.50;99.90;;;;;;5011764;28;20045;-42
2024/01/28 07:50:15;;;;;;;14.82;7.68;;;0.50;99.90;;;;;;5011575;28;20052;-43
2024/01/28 07:52:43;;;;;;;19.05;8.77;;;0.50;99.90;;;;;;4993715;28;20030;-44
2024/01/28 07:55:10;;;;;;;28.40;9.65;;;0.50;99.90;;;;;;5011753;28;20080;-41
2024/01/28 07:57:35;;;;;;;11.65;8.55;;;0.60;99.90;;;;;;5011790;28;20030;-36
2024/01/28 08:00:01;;;;;;;15.32;9.00;;;0.70;99.90;;;;;;5011839;28;20026;-39
2024/01/28 08:02:26;;;;;;;12.77;8.15;;;0.70;99.90;;;;;;5011151;28;20026;-39
2024/01/28 08:04:52;;;;;;;12.45;7.40;;;0.80;99.90;;;;;;5011518;28;20030;-39
2024/01/28 08:07:17;;;;;;;18.30;8.48;;;0.90;99.90;;;;;;5011875;28;20097;-39
2024/01/28 08:09:43;;;;;;;25.17;8.50;;;1.00;99.90;;;;;;5011247;28;20109;-41
2024/01/28 08:12:08;;;;;;;17.90;8.27;;;1.00;99.90;;;;;;5011270;28;20042;-40
2024/01/28 08:14:34;;;;;;;17.10;8.57;;;1.10;99.90;;;;;;5011304;28;20521;-40
2024/01/28 08:16:59;;;;;;;19.98;8.70;;;1.10;99.90;;;;;;5011123;28;20394;-40
2024/01/28 08:19:24;;;;;;;18.35;9.10;;;1.20;99.90;;;;;;5014436;28;20522;-39
2024/01/28 08:21:50;;;;;;;21.60;9.43;;;1.20;99.90;;;;;;5015999;28;20030;-39
2024/01/28 08:24:16;;;;;;;17.83;7.60;;;1.20;99.90;;;;;;5014798;28;20487;-39
2024/01/28 08:26:42;;;;;;;20.30;9.10;;;1.20;99.90;;;;;;5016050;28;20041;-39
2024/01/28 08:29:07;;;;;;;19.50;8.13;;;1.30;99.90;;;;;;5015861;28;20108;-38
2024/01/28 08:31:33;;;;;;;16.20;7.40;;;1.30;99.90;;;;;;5015206;28;20034;-39
2024/01/28 08:34:00;;;;;;;14.70;7.80;;;1.30;99.90;;;;;;5014787;28;20564;-41
2024/01/28 08:36:26;;;;;;;14.70;8.30;;;1.40;99.90;;;;;;5015373;28;20041;-40
2024/01/28 08:38:52;;;;;;;20.30;8.10;;;1.50;99.90;;;;;;5015403;28;20030;-39
2024/01/28 08:41:17;;;;;;;16.63;7.85;;;1.50;99.90;;;;;;5015450;28;20018;-39
2024/01/28 08:43:43;;;;;;;11.05;7.47;;;1.60;99.90;;;;;;5015325;28;20428;-40
2024/01/28 08:46:09;;;;;;;18.67;8.35;;;1.60;99.90;;;;;;5015293;28;20391;-38
2024/01/28 08:48:35;;;;;;;13.95;7.70;;;1.70;99.90;;;;;;5014796;28;20049;-40
2024/01/28 08:51:00;;;;;;;17.65;8.25;;;1.80;99.90;;;;;;5014668;28;20486;-41
2024/01/28 08:53:26;;;;;;;17.38;8.05;;;1.90;99.90;;;;;;5014547;28;20041;-38
2024/01/28 08:55:51;;;;;;;17.55;7.45;;;1.90;99.90;;;;;;5014937;28;20390;-39
2024/01/28 08:58:17;;;;;;;16.63;8.30;;;1.90;99.90;;;;;;5014778;28;20033;-39
2024/01/28 09:00:42;;;;;;;12.65;7.38;;;1.90;99.90;;;;;;5014075;28;20455;-40
2024/01/28 09:03:08;;;;;;;21.05;7.88;;;1.90;99.90;;;;;;5014371;28;20030;-39
2024/01/28 09:05:33;;;;;;;16.25;9.00;;;2.00;99.90;;;;;;5014414;28;20025;-39
2024/01/28 09:07:59;;;;;;;18.27;7.35;;;2.00;99.90;;;;;;5014434;28;20068;-42
2024/01/28 09:10:24;;;;;;;16.77;7.22;;;2.20;99.90;;;;;;5014017;28;20105;-41
2024/01/28 09:12:50;;;;;;;20.02;8.85;;;2.30;99.90;;;;;;5013775;28;20037;-39
2024/01/28 09:15:15;;;;;;;15.88;8.52;;;2.50;99.90;;;;;;5014098;28;20022;-42
2024/01/28 09:17:41;;;;;;;19.42;7.72;;;3.30;99.90;;;;;;5013802;28;20022;-40
2024/01/28 09:20:07;;;;;;;13.10;7.28;;;4.20;99.90;;;;;;5014253;28;20144;-40
2024/01/28 09:22:36;;;;;;;11.55;6.70;;;5.10;99.90;;;;;;5013644;28;20022;-42
2024/01/28 09:25:04;;;;;;;21.40;7.70;;;5.80;99.90;;;;;;5014515;28;20410;-39
2024/01/28 09:27:30;;;;;;;11.32;6.28;;;6.50;99.90;;;;;;5014287;28;20030;-40
2024/01/28 09:29:55;;;;;;;14.80;6.07;;;7.00;99.90;;;;;;5013134;28;20026;-41
2024/01/28 09:32:21;;;;;;;10.95;6.28;;;7.70;99.90;;;;;;5014288;28;20091;-40
2024/01/28 09:34:46;;;;;;;11.48;6.10;;;8.20;99.90;;;;;;5014062;28;20030;-39
2024/01/28 09:37:12;;;;;;;13.32;6.68;;;8.20;99.90;;;;;;5013954;28;20057;-40
2024/01/28 09:39:38;;;;;;;15.90;6.90;;;8.20;99.90;;;;;;5014449;28;20042;-41
2024/01/28 09:42:11;;;;;;;13.73;6.88;;;8.70;99.90;;;;;;5014548;28;20042;-39
2024/01/28 09:44:38;;;;;;;11.95;6.10;;;9.10;99.90;;;;;;5013869;28;20037;-41
2024/01/28 09:47:05;;;;;;;12.20;5.55;;;9.00;99.90;;;;;;5013675;28;20105;-41
2024/01/28 09:49:39;;;;;;;12.25;5.75;;;9.00;99.90;;;;;;5013739;28;20092;-39
2024/01/28 09:52:09;;;;;;;13.15;5.95;;;9.00;99.90;;;;;;5012884;28;20100;-38
2024/01/28 09:54:34;;;;;;;12.23;6.20;;;9.10;99.90;;;;;;5011088;28;20033;-40
2024/01/28 09:57:01;;;;;;;12.77;5.80;;;9.10;99.90;;;;;;5012070;28;20557;-40
2024/01/28 09:59:29;;;;;;;9.15;6.57;;;8.90;99.90;;;;;;5012813;28;20752;-39
2024/01/28 10:01:55;;;;;;;12.95;6.35;;;8.80;99.90;;;;;;5013197;28;20030;-39
2024/01/28 10:04:21;;;;;;;12.90;6.38;;;8.90;99.90;;;;;;5013189;28;20026;-40
2024/01/28 10:06:48;;;;;;;10.15;6.60;;;8.80;99.90;;;;;;5013683;28;20022;-45
2024/01/28 10:09:14;;;;;;;11.90;5.88;;;9.20;99.90;;;;;;5013421;28;20054;-44
2024/01/28 10:11:39;;;;;;;12.80;6.35;;;9.80;99.90;;;;;;5013135;28;20529;-44
2024/01/28 10:14:05;;;;;;;10.07;5.75;;;10.00;99.90;;;;;;5013051;28;20037;-41
2024/01/28 10:16:32;;;;;;;9.10;6.30;;;10.00;99.90;;;;;;5012890;28;20042;-41
2024/01/28 10:18:57;;;;;;;12.35;6.60;;;10.40;99.90;;;;;;5012130;28;20024;-40
2024/01/28 10:21:24;;;;;;;9.93;5.65;;;10.80;99.90;;;;;;5013005;28;20113;-39
2024/01/28 10:23:49;;;;;;;10.77;5.88;;;11.20;99.40;;;;;;5012328;28;20038;-40
2024/01/28 10:26:15;;;;;;;14.15;5.95;;;11.00;98.60;;;;;;5012565;28;20052;-39
2024/01/28 10:28:41;;;;;;;13.98;6.40;;;10.90;98.70;;;;;;5013058;28;20025;-39
2024/01/28 10:31:07;;;;;;;11.52;6.05;;;10.60;98.70;;;;;;5012158;28;20033;-39
2024/01/28 10:33:32;;;;;;;10.20;6.20;;;10.10;99.90;;;;;;5012590;28;20590;-39
2024/01/28 10:36:01;;;;;;;16.35;7.40;;;10.80;99.90;;;;;;5012558;28;20125;-39
2024/01/28 10:38:30;;;;;;;14.32;6.55;;;9.60;99.90;;;;;;5013322;28;20032;-38
2024/01/28 10:40:56;;;;;;;14.55;6.55;;;9.60;99.90;;;;;;5012364;28;20450;-40
2024/01/28 10:43:26;;;;;;;10.95;6.63;;;9.30;99.90;;;;;;5011204;28;20033;-40
2024/01/28 10:45:55;;;;;;;13.90;6.35;;;9.40;99.90;;;;;;5012613;28;20072;-40
2024/01/28 10:48:23;;;;;;;14.65;6.72;;;9.60;99.90;;;;;;5012752;28;20034;-41
2024/01/28 10:50:51;;;;;;;10.52;6.30;;;9.70;99.90;;;;;;5012986;28;20033;-38
2024/01/28 10:53:18;;;;;;;10.35;6.00;;;9.50;99.90;;;;;;5011325;28;20036;-38
2024/01/28 10:55:44;;;;;;;8.88;6.63;;;9.10;99.90;;;;;;5012053;28;20040;-39
2024/01/28 10:58:11;;;;;;;12.25;6.85;;;9.00;99.90;;;;;;5011974;28;20044;-39
2024/01/28 11:00:38;;;;;;;16.42;7.68;;;8.80;99.90;;;;;;5013807;28;20510;-37
2024/01/28 11:03:07;;;;;;;10.05;6.00;;;8.90;99.90;;;;;;5012957;28;20034;-39
2024/01/28 11:05:35;;;;;;;11.52;6.65;;;8.80;99.90;;;;;;5011900;28;20333;-39
2024/01/28 11:08:00;;;;;;;13.65;8.02;;;8.80;99.90;;;;;;5012134;28;20144;-39
2024/01/28 11:10:27;;;;;;;9.73;6.50;;;8.80;99.90;;;;;;5011633;28;20104;-40
2024/01/28 11:12:54;;;;;;;22.08;12.05;;;8.60;99.90;;;;;;5011553;28;20087;-40
2024/01/28 11:15:19;;;;;;;14.50;8.73;;;8.70;99.90;;;;;;5012012;28;20096;-39
2024/01/28 11:17:45;;;;;;;12.00;8.00;;;8.50;99.90;;;;;;5012312;28;20032;-39
2024/01/28 11:20:22;;;;;;;9.85;5.90;;;8.40;99.90;;;;;;5012155;28;20034;-39
2024/01/28 11:22:52;;;;;;;11.80;6.50;;;8.30;99.90;;;;;;5011923;28;20033;-40
2024/01/28 11:25:38;;;;;;;12.98;6.88;;;7.90;99.90;;;;;;5012181;28;20402;-39
2024/01/28 11:28:07;;;;;;;11.25;6.20;;;7.80;99.90;;;;;;5012574;28;20137;-40
2024/01/28 11:30:37;;;;;;;9.15;6.03;;;7.60;99.90;;;;;;5013219;28;20026;-39
2024/01/28 11:33:14;;;;;;;13.20;6.32;;;7.50;99.90;;;;;;5011805;28;20080;-42
2024/01/28 11:35:43;;;;;;;14.80;6.75;;;7.40;99.90;;;;;;5012036;28;20025;-37
2024/01/28 11:38:10;;;;;;;14.10;6.70;;;7.50;99.90;;;;;;5011945;28;20095;-39
2024/01/28 11:40:39;;;;;;;12.27;6.25;;;7.50;99.90;;;;;;5011835;28;20022;-39
2024/01/28 11:43:06;;;;;;;10.40;6.63;;;7.50;99.90;;;;;;5011599;28;20038;-37
2024/01/28 11:45:32;;;;;;;10.38;6.15;;;7.70;99.90;;;;;;5011568;28;20455;-38
2024/01/28 11:48:04;;;;;;;9.98;6.30;;;7.60;99.90;;;;;;5011879;28;20510;-39
2024/01/28 11:50:30;;;;;;;10.70;6.07;;;7.50;99.90;;;;;;5013183;28;20440;-37
2024/01/28 11:52:55;;;;;;;15.40;6.57;;;7.40;99.90;;;;;;5012242;28;20036;-40
2024/01/28 11:55:21;;;;;;;9.50;6.65;;;7.40;99.90;;;;;;5012131;28;20025;-39
2024/01/28 11:57:48;;;;;;;11.13;6.70;;;7.30;99.90;;;;;;5014898;28;20030;-39
2024/01/28 12:00:14;;;;;;;12.48;7.38;;;7.20;99.90;;;;;;4998587;28;20510;-38
2024/01/28 12:02:41;;;;;;;8.13;5.90;;;7.20;99.90;;;;;;5016344;28;20112;-37
2024/01/28 12:05:07;;;;;;;12.27;5.55;;;7.30;99.90;;;;;;5016946;28;20089;-39
2024/01/28 12:07:39;;;;;;;10.80;7.03;;;7.20;99.90;;;;;;5017117;28;20117;-39
2024/01/28 12:10:12;;;;;;;18.55;7.47;;;7.20;99.90;;;;;;5017950;28;20030;-40
2024/01/28 12:12:41;;;;;;;15.30;6.75;;;7.00;99.90;;;;;;5015944;28;20050;-39
2024/01/28 12:15:08;;;;;;;8.55;6.13;;;7.10;99.90;;;;;;5017173;28;20056;-37
2024/01/28 12:17:35;;;;;;;9.23;5.70;;;7.20;99.90;;;;;;5016886;28;20109;-41
2024/01/28 12:20:01;;;;;;;11.27;7.90;;;7.20;99.90;;;;;;5015082;28;20480;-39
2024/01/28 12:22:27;;;;;;;12.05;6.38;;;7.20;99.90;;;;;;5015705;28;20108;-40
2024/01/28 12:24:52;;;;;;;11.48;6.00;;;7.20;99.90;;;;;;5014917;28;20056;-39
2024/01/28 12:27:18;;;;;;;13.35;5.35;;;7.20;99.90;;;;;;5013947;28;20017;-39
2024/01/28 12:29:44;;;;;;;31.40;18.42;;;7.30;99.90;;;;;;5013750;28;20018;-39
2024/01/28 12:32:10;;;;;;;67.70;36.13;;;7.30;99.90;;;;;;5012949;28;20026;-39
2024/01/28 12:34:39;;;;;;;72.10;38.85;;;7.30;99.90;;;;;;5015047;28;20044;-40
2024/01/28 12:37:04;;;;;;;14.55;7.90;;;7.30;99.90;;;;;;5012543;28;20443;-39
2024/01/28 12:39:30;;;;;;;9.45;5.72;;;7.30;99.90;;;;;;5013472;28;20032;-39